createdAt,value
2023-02-11T00:01:05.778Z,19.20
2023-02-11T00:03:32.573Z,18.57
2023-02-11T00:06:06.181Z,18.50
2023-02-11T00:08:32.920Z,19.13
2023-02-11T00:11:17.046Z,18.80
2023-02-11T00:13:45.146Z,19.40
2023-02-11T00:16:15.687Z,18.10
2023-02-11T00:18:42.764Z,20.60
2023-02-11T00:21:12.016Z,18.03
2023-02-11T00:23:39.177Z,18.77
2023-02-11T00:26:16.386Z,18.23
2023-02-11T00:28:43.345Z,19.87
2023-02-11T00:31:10.270Z,19.10
2023-02-11T00:33:37.350Z,17.83
2023-02-11T00:36:09.541Z,19.40
2023-02-11T00:38:36.363Z,18.60
2023-02-11T00:41:03.265Z,17.60
2023-02-11T00:43:29.969Z,18.60
2023-02-11T00:45:56.747Z,18.50
2023-02-11T00:48:23.477Z,17.17
2023-02-11T00:50:50.481Z,17.73
2023-02-11T00:53:17.226Z,18.10
2023-02-11T00:55:44.015Z,17.90
2023-02-11T00:58:10.811Z,18.50
2023-02-11T01:00:37.680Z,17.30
2023-02-11T01:03:04.484Z,19.07
2023-02-11T01:05:31.431Z,18.17
2023-02-11T01:07:58.503Z,17.37
2023-02-11T01:10:25.617Z,17.60
2023-02-11T01:12:52.509Z,18.33
2023-02-11T01:15:21.043Z,16.80
2023-02-11T01:17:47.798Z,17.27
2023-02-11T01:20:19.993Z,17.20
2023-02-11T01:22:46.790Z,17.30
2023-02-11T01:25:13.595Z,16.33
2023-02-11T01:27:40.559Z,15.90
2023-02-11T01:30:09.156Z,16.70
2023-02-11T01:32:36.601Z,17.27
2023-02-11T01:35:03.979Z,16.80
2023-02-11T01:37:33.738Z,15.80
2023-02-11T01:40:02.618Z,15.30
2023-02-11T01:42:29.614Z,16.03
2023-02-11T01:44:58.301Z,15.63
2023-02-11T01:47:25.080Z,15.73
2023-02-11T01:50:01.191Z,16.23
2023-02-11T01:52:39.336Z,15.93
2023-02-11T01:55:28.594Z,15.33
2023-02-11T01:57:58.646Z,16.07
2023-02-11T02:00:36.289Z,15.30
2023-02-11T02:03:24.447Z,14.80
2023-02-11T02:06:00.053Z,15.40
2023-02-11T02:08:34.782Z,15.20
2023-02-11T02:11:02.144Z,15.17
2023-02-11T02:13:31.394Z,12.70
2023-02-11T02:16:04.759Z,14.63
2023-02-11T02:19:03.557Z,14.30
2023-02-11T02:22:14.377Z,13.93
2023-02-11T02:25:01.073Z,13.93
2023-02-11T02:27:59.329Z,12.87
2023-02-11T02:30:44.850Z,13.80
2023-02-11T02:33:22.800Z,13.13
2023-02-11T02:36:08.102Z,13.20
2023-02-11T02:38:48.893Z,13.17
2023-02-11T02:41:26.990Z,13.87
2023-02-11T02:43:54.373Z,11.97
2023-02-11T02:46:32.947Z,12.77
2023-02-11T02:49:00.294Z,11.87
2023-02-11T02:51:50.963Z,13.57
2023-02-11T02:54:37.052Z,11.50
2023-02-11T02:57:15.846Z,12.07
2023-02-11T03:00:20.183Z,13.37
2023-02-11T03:03:24.912Z,12.33
2023-02-11T03:06:07.353Z,11.53
2023-02-11T03:08:40.707Z,11.80
2023-02-11T03:11:09.542Z,12.07
2023-02-11T03:13:37.816Z,10.87
2023-02-11T03:16:14.270Z,10.43
2023-02-11T03:18:44.958Z,11.07
2023-02-11T03:21:14.054Z,12.93
2023-02-11T03:23:43.008Z,12.60
2023-02-11T03:26:18.512Z,11.40
2023-02-11T03:28:51.516Z,10.37
2023-02-11T03:31:26.150Z,12.00
2023-02-11T03:34:31.107Z,12.20
2023-02-11T03:37:16.335Z,12.50
2023-02-11T03:39:50.412Z,11.63
2023-02-11T03:42:18.136Z,12.07
2023-02-11T03:44:53.813Z,12.53
2023-02-11T03:47:25.811Z,12.40
2023-02-11T03:49:55.541Z,12.00
2023-02-11T03:52:24.776Z,11.27
2023-02-11T03:54:55.842Z,12.70
2023-02-11T03:57:22.577Z,14.27
2023-02-11T03:59:57.760Z,14.10
2023-02-11T04:02:29.342Z,13.57
2023-02-11T04:04:56.318Z,15.10
2023-02-11T04:07:25.974Z,14.90
2023-02-11T04:09:53.207Z,13.40
2023-02-11T04:12:20.391Z,16.27
2023-02-11T04:14:47.165Z,14.73
2023-02-11T04:17:14.002Z,15.70
2023-02-11T04:19:40.863Z,15.43
2023-02-11T04:22:07.874Z,14.80
2023-02-11T04:24:35.098Z,17.57
2023-02-11T04:27:02.256Z,17.07
2023-02-11T04:29:29.078Z,21.97
2023-02-11T04:31:56.231Z,16.57
2023-02-11T04:34:23.412Z,17.73
2023-02-11T04:36:50.656Z,15.33
2023-02-11T04:39:17.395Z,15.40
2023-02-11T04:41:44.157Z,15.30
2023-02-11T04:44:11.162Z,14.00
2023-02-11T04:46:37.884Z,13.97
2023-02-11T04:49:04.725Z,13.07
2023-02-11T04:51:31.766Z,13.20
2023-02-11T04:53:58.543Z,13.73
2023-02-11T04:56:25.280Z,13.97
2023-02-11T04:58:52.282Z,12.70
2023-02-11T05:01:19.107Z,13.03
2023-02-11T05:03:45.947Z,11.90
2023-02-11T05:06:12.834Z,12.10
2023-02-11T05:08:39.602Z,11.50
2023-02-11T05:11:06.470Z,11.73
2023-02-11T05:13:33.342Z,11.47
2023-02-11T05:16:00.196Z,13.23
2023-02-11T05:18:26.942Z,11.73
2023-02-11T05:20:53.714Z,12.00
2023-02-11T05:23:20.468Z,12.10
2023-02-11T05:25:47.193Z,11.73
2023-02-11T05:28:14.104Z,12.97
2023-02-11T05:30:40.885Z,11.40
2023-02-11T05:33:07.637Z,12.80
2023-02-11T05:35:34.514Z,12.80
2023-02-11T05:38:01.285Z,13.40
2023-02-11T05:40:28.056Z,12.37
2023-02-11T05:42:54.785Z,13.20
2023-02-11T05:45:21.492Z,12.97
2023-02-11T05:47:48.289Z,13.93
2023-02-11T05:50:15.149Z,12.37
2023-02-11T05:52:41.888Z,13.43
2023-02-11T05:55:08.895Z,13.83
2023-02-11T05:57:35.724Z,13.10
2023-02-11T06:00:04.287Z,13.10
2023-02-11T06:02:31.129Z,13.77
2023-02-11T06:04:57.898Z,13.30
2023-02-11T06:07:24.634Z,13.63
2023-02-11T06:09:52.382Z,13.13
2023-02-11T06:12:19.109Z,13.40
2023-02-11T06:14:46.076Z,13.20
2023-02-11T06:17:15.351Z,15.20
2023-02-11T06:19:42.396Z,12.67
2023-02-11T06:22:09.223Z,14.60
2023-02-11T06:24:54.964Z,13.83
2023-02-11T06:27:24.219Z,15.43
2023-02-11T06:29:52.509Z,13.50
2023-02-11T06:32:39.493Z,15.80
2023-02-11T06:35:06.738Z,14.57
2023-02-11T06:37:34.914Z,14.30
2023-02-11T06:40:01.686Z,18.20
2023-02-11T06:42:28.450Z,15.70
2023-02-11T06:44:55.120Z,13.77
2023-02-11T06:47:21.872Z,14.13
2023-02-11T06:49:48.597Z,13.20
2023-02-11T06:52:15.374Z,14.70
2023-02-11T06:54:42.095Z,13.30
2023-02-11T06:57:08.866Z,14.03
2023-02-11T06:59:35.715Z,14.93
2023-02-11T07:02:02.507Z,15.47
2023-02-11T07:04:29.280Z,14.80
2023-02-11T07:06:56.095Z,14.20
2023-02-11T07:09:22.940Z,15.70
2023-02-11T07:11:49.722Z,16.10
2023-02-11T07:14:16.524Z,15.87
2023-02-11T07:16:43.339Z,14.90
2023-02-11T07:19:10.159Z,15.57
2023-02-11T07:21:36.934Z,15.77
2023-02-11T07:24:10.342Z,16.10
2023-02-11T07:26:37.606Z,15.10
2023-02-11T07:29:04.664Z,15.50
2023-02-11T07:31:31.911Z,18.57
2023-02-11T07:34:01.050Z,20.37
2023-02-11T07:36:29.313Z,18.80
2023-02-11T07:38:56.058Z,16.20
2023-02-11T07:41:24.453Z,18.13
2023-02-11T07:43:51.853Z,15.60
2023-02-11T07:46:24.342Z,16.60
2023-02-11T07:48:51.519Z,17.10
2023-02-11T07:51:21.002Z,15.90
2023-02-11T07:53:49.064Z,17.03
2023-02-11T07:56:17.425Z,15.50
2023-02-11T07:58:44.515Z,16.80
2023-02-11T08:01:25.394Z,17.30
2023-02-11T08:03:53.125Z,16.33
2023-02-11T08:06:21.069Z,16.43
2023-02-11T08:11:29.304Z,16.30
2023-02-11T08:13:56.732Z,16.10
2023-02-11T08:16:32.615Z,18.60
2023-02-11T08:19:02.373Z,17.90
2023-02-11T08:21:29.503Z,16.03
2023-02-11T08:23:56.778Z,15.83
2023-02-11T08:26:26.197Z,17.60
2023-02-11T08:28:55.491Z,16.50
2023-02-11T08:31:29.456Z,17.00
2023-02-11T08:33:58.237Z,16.63
2023-02-11T08:36:30.590Z,16.47
2023-02-11T08:39:17.435Z,17.60
2023-02-11T08:41:50.103Z,16.47
2023-02-11T08:44:18.214Z,15.90
2023-02-11T08:46:45.220Z,17.17
2023-02-11T08:49:12.118Z,18.10
2023-02-11T08:51:38.909Z,18.90
2023-02-11T08:54:09.506Z,17.50
2023-02-11T08:56:37.642Z,17.03
2023-02-11T08:59:05.021Z,20.33
2023-02-11T09:06:53.008Z,18.63
2023-02-11T09:09:20.008Z,19.30
2023-02-11T09:11:47.744Z,19.50
2023-02-11T09:14:20.945Z,22.50
2023-02-11T09:16:48.501Z,20.30
2023-02-11T09:19:15.585Z,20.77
2023-02-11T09:21:42.394Z,19.73
2023-02-11T09:24:09.885Z,21.00
2023-02-11T09:26:37.286Z,20.67
2023-02-11T09:29:05.387Z,21.63
2023-02-11T09:31:34.383Z,20.87
2023-02-11T09:34:04.481Z,20.00
2023-02-11T09:36:38.316Z,21.03
2023-02-11T09:39:07.468Z,22.23
2023-02-11T09:41:45.860Z,22.33
2023-02-11T09:44:24.965Z,23.00
2023-02-11T09:46:59.799Z,23.17
2023-02-11T09:49:41.084Z,22.40
2023-02-11T09:52:32.210Z,20.83
2023-02-11T09:55:01.905Z,23.33
2023-02-11T09:57:36.862Z,21.50
2023-02-11T10:00:22.826Z,23.67
2023-02-11T10:03:16.857Z,22.77
2023-02-11T10:06:07.461Z,22.50
2023-02-11T10:08:43.174Z,23.20
2023-02-11T10:11:31.676Z,22.60
2023-02-11T10:14:18.045Z,21.50
2023-02-11T10:17:13.948Z,22.50
2023-02-11T10:49:44.243Z,24.90
2023-02-11T10:52:28.328Z,24.93
2023-02-11T10:55:16.245Z,25.80
2023-02-11T10:57:51.352Z,25.87
2023-02-11T11:00:18.178Z,24.50
2023-02-11T11:02:46.753Z,23.97
2023-02-11T11:05:19.848Z,24.70
2023-02-11T11:08:01.878Z,24.73
2023-02-11T11:10:43.988Z,26.70
2023-02-11T11:13:36.082Z,25.30
2023-02-11T11:16:17.230Z,25.87
2023-02-11T11:18:46.460Z,25.73
2023-02-11T11:21:26.920Z,26.40
2023-02-11T11:24:02.452Z,25.80
2023-02-11T11:26:53.956Z,22.57
2023-02-11T11:29:34.112Z,28.97
2023-02-11T11:32:11.351Z,30.07
2023-02-11T11:34:42.031Z,25.20
2023-02-11T11:37:16.658Z,25.90
2023-02-11T11:40:02.039Z,25.23
2023-02-11T11:42:32.127Z,24.70
2023-02-11T11:45:23.112Z,24.47
2023-02-11T11:50:44.925Z,24.60
2023-02-11T11:53:28.969Z,27.30
2023-02-11T11:56:20.102Z,25.37
2023-02-11T11:58:47.201Z,25.00
2023-02-11T12:01:34.780Z,25.60
2023-02-11T12:04:26.648Z,25.93
2023-02-11T12:07:12.785Z,26.13
2023-02-11T12:10:18.146Z,29.00
2023-02-11T12:12:59.579Z,26.33
2023-02-11T12:15:48.191Z,26.97
2023-02-11T12:18:32.975Z,28.90
2023-02-11T12:21:12.275Z,27.30
2023-02-11T12:23:46.545Z,27.50
2023-02-11T12:26:19.859Z,27.57
2023-02-11T12:29:20.505Z,29.10
2023-02-11T12:32:11.105Z,26.17
2023-02-11T13:03:13.795Z,27.40
2023-02-11T13:05:49.666Z,27.00
2023-02-11T13:08:32.302Z,28.30
2023-02-11T13:11:14.240Z,27.37
2023-02-11T13:14:04.353Z,27.40
2023-02-11T13:16:37.145Z,44.73
2023-02-11T13:19:24.790Z,29.67
2023-02-11T13:22:03.972Z,27.20
2023-02-11T13:24:52.325Z,27.23
2023-02-11T13:27:41.439Z,28.40
2023-02-11T13:30:26.070Z,28.43
2023-02-11T13:32:58.317Z,26.03
2023-02-11T13:35:40.184Z,25.80
2023-02-11T13:38:22.529Z,25.20
2023-02-11T13:41:24.931Z,26.40
2023-02-11T13:44:11.222Z,25.60
2023-02-11T13:47:14.676Z,26.10
2023-02-11T13:49:49.243Z,28.47
2023-02-11T13:52:23.514Z,25.77
2023-02-11T13:54:52.891Z,28.73
2023-02-11T13:57:19.586Z,26.07
2023-02-11T13:59:48.275Z,26.20
2023-02-11T14:05:27.260Z,26.53
2023-02-11T14:08:30.607Z,34.57
2023-02-11T14:11:03.551Z,30.73
2023-02-11T14:13:34.416Z,32.50
2023-02-11T14:16:10.926Z,29.37
2023-02-11T14:18:52.425Z,25.10
2023-02-11T14:21:31.093Z,26.03
2023-02-11T14:24:10.828Z,26.50
2023-02-11T14:26:46.530Z,26.67
2023-02-11T14:29:24.724Z,27.30
2023-02-11T14:32:34.460Z,28.00
2023-02-11T14:35:32.196Z,25.40
2023-02-11T14:38:15.111Z,27.10
2023-02-11T14:41:11.357Z,26.87
2023-02-11T14:43:43.065Z,26.50
2023-02-11T14:46:10.265Z,26.10
2023-02-11T14:48:39.132Z,26.20
2023-02-11T14:51:13.820Z,27.20
2023-02-11T14:53:46.675Z,25.80
2023-02-11T14:56:22.867Z,29.60
2023-02-11T14:58:51.948Z,28.33
2023-02-11T15:01:32.769Z,28.40
2023-02-11T15:04:01.429Z,26.80
2023-02-11T15:06:40.562Z,27.50
2023-02-11T15:09:14.847Z,30.73
2023-02-11T15:11:45.102Z,28.30
2023-02-11T15:14:33.865Z,28.70
2023-02-11T15:17:07.882Z,27.60
2023-02-11T15:19:41.144Z,28.27
2023-02-11T15:22:22.222Z,29.87
2023-02-11T15:25:10.473Z,31.00
2023-02-11T15:27:48.799Z,31.03
2023-02-11T15:30:36.579Z,28.77
2023-02-11T15:33:06.559Z,29.67
2023-02-11T15:35:37.121Z,29.10
2023-02-11T15:38:04.678Z,28.13
2023-02-11T15:40:34.234Z,29.50
2023-02-11T15:43:11.046Z,32.07
2023-02-11T15:46:01.660Z,28.60
2023-02-11T15:48:41.517Z,29.77
2023-02-11T15:51:19.738Z,30.73
2023-02-11T15:53:52.786Z,29.60
2023-02-11T15:56:32.907Z,31.10
2023-02-11T15:59:08.957Z,29.77
2023-02-11T16:01:37.508Z,32.03
2023-02-11T16:04:05.783Z,31.83
2023-02-11T16:06:42.803Z,30.93
2023-02-11T16:09:10.987Z,28.90
2023-02-11T16:11:55.076Z,30.10
2023-02-11T16:14:39.392Z,33.30
2023-02-11T16:17:19.620Z,31.93
2023-02-11T16:19:48.761Z,29.30
2023-02-11T16:22:30.246Z,30.93
2023-02-11T16:24:59.470Z,30.93
2023-02-11T16:27:39.961Z,31.93
2023-02-11T16:30:33.971Z,29.63
2023-02-11T16:33:00.939Z,32.20
2023-02-11T16:35:27.658Z,30.70
2023-02-11T16:37:55.497Z,31.40
2023-02-11T16:40:23.622Z,31.00
2023-02-11T16:42:52.483Z,34.27
2023-02-11T16:45:19.515Z,37.17
2023-02-11T16:47:46.607Z,33.47
2023-02-11T16:50:22.390Z,32.20
2023-02-11T16:52:49.385Z,32.00
2023-02-11T16:55:16.361Z,33.30
2023-02-11T16:57:43.098Z,31.10
2023-02-11T17:00:15.460Z,33.53
2023-02-11T17:02:42.340Z,31.17
2023-02-11T17:05:17.294Z,32.57
2023-02-11T17:07:44.007Z,30.67
2023-02-11T17:10:16.057Z,118.50
2023-02-11T17:12:42.924Z,43.20
2023-02-11T17:15:10.599Z,31.70
2023-02-11T17:17:37.307Z,32.70
2023-02-11T17:20:04.359Z,31.60
2023-02-11T17:22:31.265Z,36.10
2023-02-11T17:24:58.772Z,36.40
2023-02-11T17:27:25.569Z,36.00
2023-02-11T17:29:52.300Z,35.53
2023-02-11T17:32:19.094Z,37.57
2023-02-11T17:34:45.930Z,39.57
2023-02-11T17:37:12.634Z,42.77
2023-02-11T17:39:40.163Z,36.97
2023-02-11T17:42:08.670Z,33.73
2023-02-11T17:44:35.971Z,31.23
2023-02-11T17:47:02.776Z,33.37
2023-02-11T17:49:29.601Z,34.60
2023-02-11T17:51:56.417Z,31.47
2023-02-11T17:54:23.213Z,34.40
2023-02-11T17:56:50.979Z,32.10
2023-02-11T17:59:18.173Z,32.77
2023-02-11T18:01:44.949Z,34.03
2023-02-11T18:04:17.674Z,35.80
2023-02-11T18:06:45.036Z,37.37
2023-02-11T18:09:12.952Z,41.93
2023-02-11T18:11:40.801Z,36.07
2023-02-11T18:14:08.555Z,37.07
2023-02-11T18:16:36.607Z,35.77
2023-02-11T18:19:04.059Z,34.57
2023-02-11T18:21:30.805Z,37.13
2023-02-11T18:23:57.717Z,36.40
2023-02-11T18:26:28.196Z,35.80
2023-02-11T18:28:57.740Z,33.23
2023-02-11T18:31:26.417Z,33.97
2023-02-11T18:33:53.491Z,38.10
2023-02-11T18:36:21.539Z,43.60
2023-02-11T18:38:48.605Z,38.60
2023-02-11T18:41:15.785Z,36.53
2023-02-11T18:43:43.148Z,36.80
2023-02-11T18:46:12.491Z,36.53
2023-02-11T18:48:40.014Z,38.57
2023-02-11T18:51:18.746Z,34.50
2023-02-11T18:53:45.537Z,36.00
2023-02-11T18:56:18.674Z,36.50
2023-02-11T18:58:45.739Z,36.40
2023-02-11T19:01:29.645Z,37.17
2023-02-11T19:03:58.822Z,35.83
2023-02-11T19:06:27.983Z,36.20
2023-02-11T19:08:59.343Z,36.73
2023-02-11T19:11:46.707Z,34.90
2023-02-11T19:14:18.760Z,36.30
2023-02-11T19:16:46.498Z,34.00
2023-02-11T19:19:14.223Z,34.50
2023-02-11T19:21:43.802Z,34.63
2023-02-11T19:24:12.310Z,35.90
2023-02-11T19:26:39.279Z,34.70
2023-02-11T19:29:06.526Z,35.30
2023-02-11T19:31:33.853Z,37.40
2023-02-11T19:34:01.671Z,34.50
2023-02-11T19:36:28.946Z,33.80
2023-02-11T19:38:55.752Z,34.40
2023-02-11T19:41:23.262Z,35.27
2023-02-11T19:43:53.720Z,34.33
2023-02-11T19:46:21.898Z,34.90
2023-02-11T20:07:42.997Z,35.03
2023-02-11T20:10:10.209Z,34.80
2023-02-11T20:12:39.081Z,36.80
2023-02-11T20:15:06.566Z,35.37
2023-02-11T20:17:33.447Z,34.37
2023-02-11T20:20:02.930Z,35.03
2023-02-11T20:22:29.716Z,33.60
2023-02-11T20:24:56.525Z,35.70
2023-02-11T20:27:24.203Z,35.40
2023-02-11T20:29:51.533Z,32.30
2023-02-11T20:32:18.346Z,34.57
2023-02-11T20:34:45.329Z,32.77
2023-02-11T20:37:12.345Z,32.90
2023-02-11T20:39:40.997Z,33.37
2023-02-11T20:42:15.185Z,32.13
2023-02-11T20:44:41.957Z,36.73
2023-02-11T20:47:08.720Z,34.13
2023-02-11T20:49:35.432Z,33.90
2023-02-11T20:52:02.329Z,32.83
2023-02-11T20:54:30.355Z,35.00
2023-02-11T20:56:58.258Z,35.77
2023-02-11T20:59:25.710Z,32.10
2023-02-11T21:01:55.711Z,32.17
2023-02-11T21:04:25.412Z,34.50
2023-02-11T21:06:56.042Z,35.07
2023-02-11T21:09:26.125Z,34.10
2023-02-11T21:11:53.931Z,33.23
2023-02-11T21:14:22.415Z,35.57
2023-02-11T21:16:49.657Z,35.27
2023-02-11T21:19:17.181Z,34.93
2023-02-11T21:21:44.166Z,32.13
2023-02-11T21:24:11.693Z,36.00
2023-02-11T21:26:38.495Z,35.33
2023-02-11T21:29:07.298Z,35.17
2023-02-11T21:31:35.700Z,34.77
2023-02-11T21:34:02.880Z,34.60
2023-02-11T21:36:30.816Z,34.70
2023-02-11T21:38:57.997Z,35.80
2023-02-11T21:41:25.110Z,36.47
2023-02-11T21:43:52.392Z,35.60
2023-02-11T21:46:20.841Z,32.70
2023-02-11T21:48:48.133Z,36.47
2023-02-11T21:51:18.160Z,35.30
2023-02-11T21:53:45.452Z,34.20
2023-02-11T21:56:17.681Z,35.90
2023-02-11T21:58:45.363Z,37.37
2023-02-11T22:01:15.574Z,34.97
2023-02-11T22:03:44.355Z,33.87
2023-02-11T22:06:14.341Z,34.33
2023-02-11T22:08:41.165Z,36.57
2023-02-11T22:11:10.631Z,35.90
2023-02-11T22:13:38.046Z,34.80
2023-02-11T22:16:08.250Z,33.43
2023-02-11T22:18:35.580Z,33.73
2023-02-11T22:21:05.571Z,34.50
2023-02-11T22:23:33.377Z,33.27
2023-02-11T22:26:04.646Z,34.83
2023-02-11T22:28:31.518Z,34.00
2023-02-11T22:30:59.107Z,35.93
2023-02-11T22:33:27.464Z,35.30
2023-02-11T22:36:02.229Z,35.87
2023-02-11T22:38:31.160Z,34.57
2023-02-11T22:40:59.657Z,34.50
2023-02-11T22:43:28.180Z,36.40
2023-02-11T22:45:56.567Z,34.23
2023-02-11T22:48:23.613Z,34.43
2023-02-11T22:50:50.437Z,35.53
2023-02-11T22:53:17.264Z,34.87
2023-02-11T22:55:44.038Z,35.33
2023-02-11T22:58:11.536Z,35.77
2023-02-11T23:00:40.077Z,38.03
2023-02-11T23:03:07.842Z,34.43
2023-02-11T23:08:09.512Z,34.03
2023-02-11T23:10:38.534Z,35.77
2023-02-11T23:13:07.012Z,37.33
2023-02-11T23:15:38.597Z,34.53
2023-02-11T23:18:05.809Z,34.60
2023-02-11T23:20:35.864Z,34.73
2023-02-11T23:23:02.766Z,36.70
2023-02-11T23:25:29.836Z,34.90
2023-02-11T23:27:56.694Z,34.20
2023-02-11T23:30:24.046Z,34.03
2023-02-11T23:32:51.687Z,35.00
2023-02-11T23:35:24.919Z,36.07
2023-02-11T23:37:52.866Z,33.40
2023-02-11T23:40:21.397Z,32.97
2023-02-11T23:42:49.163Z,33.80
2023-02-11T23:45:15.984Z,33.40
2023-02-11T23:47:42.787Z,33.70
2023-02-11T23:50:10.520Z,34.27
2023-02-11T23:52:37.322Z,35.60
2023-02-11T23:55:04.486Z,33.57
2023-02-11T23:57:34.776Z,34.13
